Soperton, GA

09:00 AM EDT on أمتèبر 20, 2014 (GMT -0400)
South Treutlen Co. | Change Station
CLOSE
Current Station
Personal Weather Stations
Location: Soperton, GA
Elevation: 236 ft
Nearby Weather Stations

Elev 236 ft 32.32 °N, 82.60 °W | Updated 3 seconds ago

صافية
صافية
55.1 °F
Feels Like 55.1 °F
N
0.0
ريح متغير ريح from شمال
Gusts 2.0 mph

هذا اليوم
High -- | Low -- °F
--% Chance of Precip.
Yesterday
High -- | Low -- °F
Precip. -- في
7:37 AM 6:51 PM
الهلال الأخير, 11% visible
الضغط 30.13 في
وضوح الرؤية 10.0 أميال
سحابات صافية
نقطة الندى 55 °F
الرطوبة 100%
Rainfall 0.15 في
عمق الثلج Not available.
الأشعة فوق البنفسجية 1 out of 12
Pollen 2.60 out of 12
جودة الهواء Not available.
Flu Activity Sporadic
METAR KVDI 201235Z AUTO 00000KT 10SM CLR 11/11 A3013 RMK AO2

More Conditions Fewer Conditions

الضغط 30.13 في
وضوح الرؤية 10.0 أميال
سحابات صافية
نقطة الندى 55 °F
الرطوبة 100%
Rainfall 0.15 في
عمق الثلج Not available.
الأشعة فوق البنفسجية 1 out of 12
Pollen 2.60 out of 12
جودة الهواء Not available.
Flu Activity Sporadic
METAR KVDI 201235Z AUTO 00000KT 10SM CLR 11/11 A3013 RMK AO2

More Conditions Fewer Conditions

10-Day Weather Forecast

Almanac

علم الفلك

Oct. 20, 2014 Rise Set
Actual Time 7:37 AM EDT 6:51 PM EDT
Civil Twilight 7:12 AM EDT 7:16 PM EDT
Nautical Twilight 6:44 AM EDT 7:45 PM EDT
Astronomical Twilight 6:15 AM EDT 8:13 PM EDT
قمر 4:35 AM EDT 5:05 PM EDT
Length Of Visible Light 12h 03m
طول الیوم
11h 14m
الهلال الأخير, 11% of the Moon is Illuminated
هذا اليوم
الهلال الأخير
Oct 23
New
Oct 30
الربع الاول
Nov 6
بدر
Nov 14
الربع الآخر

Today's Extremes

State Highs State Lows

Community

WunderPhotos

Upload Photos

1,763,363 photos uploaded!

Nearby

عمق الثلج

Station Depth Elevation
No new snow has been reported.

Earthquake Activity

City Distance Mag. Time & Date
No recent earthquake activity has been reported nearby.
Minimum magnitude displayed is 2.5.

Coastal Water Temperatures

مكان درجات الحرارة
No Stations Reporting

Nearby Weather Stations